sensor_id;sensor_type;location;lat;lon;timestamp;P1;durP1;ratioP1;P2;durP2;ratioP2
13855;SDS011;6998;53.608;9.958;2022-07-29T00:01:16;2.35;;;1.50;;
13855;SDS011;6998;53.608;9.958;2022-07-29T00:03:43;3.53;;;1.70;;
13855;SDS011;6998;53.608;9.958;2022-07-29T00:06:10;3.20;;;1.55;;
13855;SDS011;6998;53.608;9.958;2022-07-29T00:08:36;1.77;;;1.50;;
13855;SDS011;6998;53.608;9.958;2022-07-29T00:11:03;5.75;;;1.98;;
13855;SDS011;6998;53.608;9.958;2022-07-29T00:13:30;1.83;;;1.40;;
13855;SDS011;6998;53.608;9.958;2022-07-29T00:15:57;3.63;;;1.50;;
13855;SDS011;6998;53.608;9.958;2022-07-29T00:18:25;3.13;;;1.80;;
13855;SDS011;6998;53.608;9.958;2022-07-29T00:20:52;3.50;;;1.98;;
13855;SDS011;6998;53.608;9.958;2022-07-29T00:23:19;3.78;;;1.75;;
13855;SDS011;6998;53.608;9.958;2022-07-29T00:25:45;5.00;;;1.95;;
13855;SDS011;6998;53.608;9.958;2022-07-29T00:28:12;3.78;;;1.95;;
13855;SDS011;6998;53.608;9.958;2022-07-29T00:30:39;2.55;;;1.70;;
13855;SDS011;6998;53.608;9.958;2022-07-29T00:33:07;5.05;;;2.03;;
13855;SDS011;6998;53.608;9.958;2022-07-29T00:35:36;3.33;;;1.80;;
13855;SDS011;6998;53.608;9.958;2022-07-29T00:38:08;3.40;;;2.00;;
13855;SDS011;6998;53.608;9.958;2022-07-29T00:40:35;3.47;;;1.83;;
13855;SDS011;6998;53.608;9.958;2022-07-29T00:43:02;3.30;;;2.03;;
13855;SDS011;6998;53.608;9.958;2022-07-29T00:45:29;2.45;;;1.60;;
13855;SDS011;6998;53.608;9.958;2022-07-29T00:47:56;2.45;;;1.88;;
13855;SDS011;6998;53.608;9.958;2022-07-29T00:50:22;4.72;;;1.80;;
13855;SDS011;6998;53.608;9.958;2022-07-29T00:52:51;3.28;;;1.63;;
13855;SDS011;6998;53.608;9.958;2022-07-29T00:55:19;3.95;;;2.05;;
13855;SDS011;6998;53.608;9.958;2022-07-29T00:57:46;3.70;;;1.85;;
13855;SDS011;6998;53.608;9.958;2022-07-29T01:00:14;2.65;;;1.92;;
13855;SDS011;6998;53.608;9.958;2022-07-29T01:02:43;2.83;;;1.77;;
13855;SDS011;6998;53.608;9.958;2022-07-29T01:05:10;4.10;;;2.20;;
13855;SDS011;6998;53.608;9.958;2022-07-29T01:07:38;2.40;;;1.70;;
13855;SDS011;6998;53.608;9.958;2022-07-29T01:10:08;3.97;;;1.85;;
13855;SDS011;6998;53.608;9.958;2022-07-29T01:12:36;2.00;;;1.77;;
13855;SDS011;6998;53.608;9.958;2022-07-29T01:15:05;2.70;;;1.90;;
13855;SDS011;6998;53.608;9.958;2022-07-29T01:17:34;2.58;;;1.90;;
13855;SDS011;6998;53.608;9.958;2022-07-29T01:20:06;2.70;;;2.03;;
13855;SDS011;6998;53.608;9.958;2022-07-29T01:22:42;4.30;;;1.92;;
13855;SDS011;6998;53.608;9.958;2022-07-29T01:31:28;4.25;;;1.90;;
13855;SDS011;6998;53.608;9.958;2022-07-29T01:34:02;4.25;;;1.85;;
13855;SDS011;6998;53.608;9.958;2022-07-29T01:36:33;4.82;;;1.80;;
13855;SDS011;6998;53.608;9.958;2022-07-29T01:39:05;3.38;;;2.03;;
13855;SDS011;6998;53.608;9.958;2022-07-29T01:41:35;5.18;;;2.40;;
13855;SDS011;6998;53.608;9.958;2022-07-29T01:44:10;4.30;;;2.08;;
13855;SDS011;6998;53.608;9.958;2022-07-29T01:46:41;2.28;;;2.03;;
13855;SDS011;6998;53.608;9.958;2022-07-29T01:49:16;2.53;;;2.00;;
13855;SDS011;6998;53.608;9.958;2022-07-29T01:51:49;2.72;;;2.08;;
13855;SDS011;6998;53.608;9.958;2022-07-29T01:54:21;3.20;;;2.10;;
13855;SDS011;6998;53.608;9.958;2022-07-29T01:56:53;4.07;;;2.13;;
13855;SDS011;6998;53.608;9.958;2022-07-29T01:59:23;5.68;;;2.10;;
13855;SDS011;6998;53.608;9.958;2022-07-29T02:01:53;5.00;;;2.10;;
13855;SDS011;6998;53.608;9.958;2022-07-29T02:04:20;3.67;;;1.90;;
13855;SDS011;6998;53.608;9.958;2022-07-29T02:06:49;3.45;;;2.10;;
13855;SDS011;6998;53.608;9.958;2022-07-29T02:09:17;2.78;;;2.10;;
13855;SDS011;6998;53.608;9.958;2022-07-29T02:11:47;5.05;;;2.05;;
13855;SDS011;6998;53.608;9.958;2022-07-29T02:14:18;3.25;;;2.03;;
13855;SDS011;6998;53.608;9.958;2022-07-29T02:16:49;3.80;;;2.00;;
13855;SDS011;6998;53.608;9.958;2022-07-29T02:19:21;3.42;;;2.03;;
13855;SDS011;6998;53.608;9.958;2022-07-29T02:21:51;4.00;;;2.40;;
13855;SDS011;6998;53.608;9.958;2022-07-29T02:24:20;3.03;;;2.10;;
13855;SDS011;6998;53.608;9.958;2022-07-29T02:26:49;5.35;;;2.25;;
13855;SDS011;6998;53.608;9.958;2022-07-29T02:29:17;3.28;;;2.10;;
13855;SDS011;6998;53.608;9.958;2022-07-29T02:31:48;3.78;;;2.33;;
13855;SDS011;6998;53.608;9.958;2022-07-29T02:34:17;5.85;;;2.38;;
13855;SDS011;6998;53.608;9.958;2022-07-29T02:36:46;4.38;;;2.40;;
13855;SDS011;6998;53.608;9.958;2022-07-29T02:39:14;3.65;;;2.13;;
13855;SDS011;6998;53.608;9.958;2022-07-29T02:41:43;3.10;;;2.10;;
13855;SDS011;6998;53.608;9.958;2022-07-29T02:44:14;4.30;;;2.58;;
13855;SDS011;6998;53.608;9.958;2022-07-29T02:46:44;4.18;;;2.40;;
13855;SDS011;6998;53.608;9.958;2022-07-29T02:49:17;3.45;;;2.30;;
13855;SDS011;6998;53.608;9.958;2022-07-29T02:51:58;5.78;;;2.38;;
13855;SDS011;6998;53.608;9.958;2022-07-29T02:54:29;4.50;;;2.40;;
13855;SDS011;6998;53.608;9.958;2022-07-29T02:57:00;4.38;;;2.20;;
13855;SDS011;6998;53.608;9.958;2022-07-29T02:59:32;3.00;;;2.22;;
13855;SDS011;6998;53.608;9.958;2022-07-29T03:02:03;3.13;;;2.22;;
13855;SDS011;6998;53.608;9.958;2022-07-29T03:04:31;6.43;;;2.65;;
13855;SDS011;6998;53.608;9.958;2022-07-29T03:06:59;2.72;;;2.20;;
13855;SDS011;6998;53.608;9.958;2022-07-29T03:09:27;4.97;;;2.35;;
13855;SDS011;6998;53.608;9.958;2022-07-29T03:11:55;3.53;;;2.45;;
13855;SDS011;6998;53.608;9.958;2022-07-29T03:14:22;3.10;;;2.30;;
13855;SDS011;6998;53.608;9.958;2022-07-29T03:16:50;3.85;;;2.33;;
13855;SDS011;6998;53.608;9.958;2022-07-29T03:19:19;3.90;;;2.50;;
13855;SDS011;6998;53.608;9.958;2022-07-29T03:21:46;4.72;;;2.28;;
13855;SDS011;6998;53.608;9.958;2022-07-29T03:24:26;4.80;;;2.22;;
13855;SDS011;6998;53.608;9.958;2022-07-29T03:26:54;3.38;;;2.40;;
13855;SDS011;6998;53.608;9.958;2022-07-29T03:29:21;4.70;;;2.33;;
13855;SDS011;6998;53.608;9.958;2022-07-29T03:31:48;3.13;;;2.03;;
13855;SDS011;6998;53.608;9.958;2022-07-29T03:34:15;2.95;;;2.30;;
13855;SDS011;6998;53.608;9.958;2022-07-29T03:36:43;3.85;;;2.55;;
13855;SDS011;6998;53.608;9.958;2022-07-29T03:39:10;5.68;;;2.50;;
13855;SDS011;6998;53.608;9.958;2022-07-29T03:41:40;5.30;;;2.60;;
13855;SDS011;6998;53.608;9.958;2022-07-29T03:44:10;3.42;;;2.60;;
13855;SDS011;6998;53.608;9.958;2022-07-29T03:46:38;4.15;;;2.30;;
13855;SDS011;6998;53.608;9.958;2022-07-29T03:49:05;4.78;;;2.60;;
13855;SDS011;6998;53.608;9.958;2022-07-29T03:51:34;3.35;;;2.20;;
13855;SDS011;6998;53.608;9.958;2022-07-29T03:54:03;5.15;;;2.50;;
13855;SDS011;6998;53.608;9.958;2022-07-29T03:56:32;4.30;;;2.30;;
13855;SDS011;6998;53.608;9.958;2022-07-29T03:59:01;3.38;;;2.47;;
13855;SDS011;6998;53.608;9.958;2022-07-29T04:01:29;5.28;;;2.58;;
13855;SDS011;6998;53.608;9.958;2022-07-29T04:03:58;4.03;;;2.42;;
13855;SDS011;6998;53.608;9.958;2022-07-29T04:06:26;4.80;;;2.80;;
13855;SDS011;6998;53.608;9.958;2022-07-29T04:08:53;3.85;;;2.47;;
13855;SDS011;6998;53.608;9.958;2022-07-29T04:11:21;2.92;;;2.40;;
13855;SDS011;6998;53.608;9.958;2022-07-29T04:13:48;5.07;;;2.50;;
13855;SDS011;6998;53.608;9.958;2022-07-29T04:16:15;5.35;;;2.88;;
13855;SDS011;6998;53.608;9.958;2022-07-29T04:18:42;4.03;;;2.63;;
13855;SDS011;6998;53.608;9.958;2022-07-29T04:21:08;4.93;;;2.88;;
13855;SDS011;6998;53.608;9.958;2022-07-29T04:23:35;6.00;;;2.30;;
13855;SDS011;6998;53.608;9.958;2022-07-29T04:26:02;4.45;;;2.40;;
13855;SDS011;6998;53.608;9.958;2022-07-29T04:28:30;4.85;;;2.28;;
13855;SDS011;6998;53.608;9.958;2022-07-29T04:30:57;3.90;;;2.55;;
13855;SDS011;6998;53.608;9.958;2022-07-29T04:33:24;4.85;;;2.70;;
13855;SDS011;6998;53.608;9.958;2022-07-29T04:35:51;4.53;;;2.50;;
13855;SDS011;6998;53.608;9.958;2022-07-29T04:38:17;4.22;;;2.40;;
13855;SDS011;6998;53.608;9.958;2022-07-29T04:40:44;4.25;;;2.75;;
13855;SDS011;6998;53.608;9.958;2022-07-29T04:43:11;5.25;;;2.70;;
13855;SDS011;6998;53.608;9.958;2022-07-29T04:45:39;4.90;;;3.00;;
13855;SDS011;6998;53.608;9.958;2022-07-29T04:48:06;5.22;;;2.67;;
13855;SDS011;6998;53.608;9.958;2022-07-29T04:50:32;4.93;;;2.90;;
13855;SDS011;6998;53.608;9.958;2022-07-29T04:52:59;9.35;;;3.20;;
13855;SDS011;6998;53.608;9.958;2022-07-29T04:55:26;3.60;;;2.58;;
13855;SDS011;6998;53.608;9.958;2022-07-29T04:57:53;5.60;;;3.47;;
13855;SDS011;6998;53.608;9.958;2022-07-29T05:00:20;3.97;;;2.92;;
13855;SDS011;6998;53.608;9.958;2022-07-29T05:02:49;5.75;;;2.90;;
13855;SDS011;6998;53.608;9.958;2022-07-29T05:05:16;8.35;;;3.00;;
13855;SDS011;6998;53.608;9.958;2022-07-29T05:07:42;5.97;;;2.83;;
13855;SDS011;6998;53.608;9.958;2022-07-29T05:10:09;5.28;;;3.20;;
13855;SDS011;6998;53.608;9.958;2022-07-29T05:12:36;3.58;;;2.70;;
13855;SDS011;6998;53.608;9.958;2022-07-29T05:15:03;7.82;;;3.05;;
13855;SDS011;6998;53.608;9.958;2022-07-29T05:17:31;5.00;;;2.88;;
13855;SDS011;6998;53.608;9.958;2022-07-29T05:20:00;3.85;;;2.90;;
13855;SDS011;6998;53.608;9.958;2022-07-29T05:22:27;3.72;;;3.17;;
13855;SDS011;6998;53.608;9.958;2022-07-29T05:24:53;5.18;;;2.92;;
13855;SDS011;6998;53.608;9.958;2022-07-29T05:27:20;7.20;;;3.10;;
13855;SDS011;6998;53.608;9.958;2022-07-29T05:29:47;3.70;;;2.80;;
13855;SDS011;6998;53.608;9.958;2022-07-29T05:32:14;6.40;;;3.50;;
13855;SDS011;6998;53.608;9.958;2022-07-29T05:34:41;6.43;;;3.60;;
13855;SDS011;6998;53.608;9.958;2022-07-29T05:37:09;4.32;;;3.03;;
13855;SDS011;6998;53.608;9.958;2022-07-29T05:39:38;7.75;;;3.17;;
13855;SDS011;6998;53.608;9.958;2022-07-29T05:42:07;5.25;;;3.10;;
13855;SDS011;6998;53.608;9.958;2022-07-29T05:44:35;6.85;;;3.00;;
13855;SDS011;6998;53.608;9.958;2022-07-29T05:47:03;4.68;;;2.92;;
13855;SDS011;6998;53.608;9.958;2022-07-29T05:49:29;5.97;;;2.88;;
13855;SDS011;6998;53.608;9.958;2022-07-29T05:51:56;4.93;;;2.92;;
13855;SDS011;6998;53.608;9.958;2022-07-29T05:54:24;6.13;;;2.85;;
13855;SDS011;6998;53.608;9.958;2022-07-29T05:56:51;5.47;;;2.65;;
13855;SDS011;6998;53.608;9.958;2022-07-29T05:59:18;4.35;;;2.55;;
13855;SDS011;6998;53.608;9.958;2022-07-29T06:01:44;6.22;;;2.88;;
13855;SDS011;6998;53.608;9.958;2022-07-29T06:04:11;4.95;;;2.83;;
13855;SDS011;6998;53.608;9.958;2022-07-29T06:06:38;3.67;;;2.58;;
13855;SDS011;6998;53.608;9.958;2022-07-29T06:09:05;8.27;;;2.95;;
13855;SDS011;6998;53.608;9.958;2022-07-29T06:11:33;6.25;;;2.70;;
13855;SDS011;6998;53.608;9.958;2022-07-29T06:14:00;4.25;;;2.80;;
13855;SDS011;6998;53.608;9.958;2022-07-29T06:16:28;5.57;;;3.00;;
13855;SDS011;6998;53.608;9.958;2022-07-29T06:18:54;6.15;;;2.78;;
13855;SDS011;6998;53.608;9.958;2022-07-29T06:21:21;4.40;;;2.95;;
13855;SDS011;6998;53.608;9.958;2022-07-29T06:23:48;5.70;;;2.97;;
13855;SDS011;6998;53.608;9.958;2022-07-29T06:26:15;4.30;;;2.72;;
13855;SDS011;6998;53.608;9.958;2022-07-29T06:28:43;4.28;;;2.55;;
13855;SDS011;6998;53.608;9.958;2022-07-29T06:31:09;6.05;;;2.60;;
13855;SDS011;6998;53.608;9.958;2022-07-29T06:33:36;4.97;;;2.70;;
13855;SDS011;6998;53.608;9.958;2022-07-29T06:36:03;4.53;;;2.63;;
13855;SDS011;6998;53.608;9.958;2022-07-29T06:38:30;4.72;;;2.83;;
13855;SDS011;6998;53.608;9.958;2022-07-29T06:40:58;6.32;;;2.65;;
13855;SDS011;6998;53.608;9.958;2022-07-29T06:43:26;4.85;;;2.35;;
13855;SDS011;6998;53.608;9.958;2022-07-29T06:45:57;4.47;;;2.22;;
13855;SDS011;6998;53.608;9.958;2022-07-29T06:48:26;6.45;;;2.35;;
13855;SDS011;6998;53.608;9.958;2022-07-29T06:50:53;6.00;;;2.17;;
13855;SDS011;6998;53.608;9.958;2022-07-29T06:53:20;5.53;;;2.90;;
13855;SDS011;6998;53.608;9.958;2022-07-29T06:55:46;4.03;;;2.13;;
13855;SDS011;6998;53.608;9.958;2022-07-29T06:58:13;4.28;;;2.53;;
13855;SDS011;6998;53.608;9.958;2022-07-29T07:00:41;5.30;;;2.50;;
13855;SDS011;6998;53.608;9.958;2022-07-29T07:03:09;4.68;;;2.50;;
13855;SDS011;6998;53.608;9.958;2022-07-29T07:05:35;3.75;;;2.50;;
13855;SDS011;6998;53.608;9.958;2022-07-29T07:08:02;6.72;;;2.47;;
13855;SDS011;6998;53.608;9.958;2022-07-29T07:10:29;4.90;;;2.25;;
13855;SDS011;6998;53.608;9.958;2022-07-29T07:12:56;5.43;;;2.40;;
13855;SDS011;6998;53.608;9.958;2022-07-29T07:15:23;5.22;;;2.60;;
13855;SDS011;6998;53.608;9.958;2022-07-29T07:17:50;3.80;;;2.47;;
13855;SDS011;6998;53.608;9.958;2022-07-29T07:20:18;5.63;;;2.60;;
13855;SDS011;6998;53.608;9.958;2022-07-29T07:22:45;7.75;;;2.65;;
13855;SDS011;6998;53.608;9.958;2022-07-29T07:25:12;4.90;;;2.47;;
13855;SDS011;6998;53.608;9.958;2022-07-29T07:27:39;3.30;;;2.22;;
13855;SDS011;6998;53.608;9.958;2022-07-29T07:30:06;2.65;;;2.20;;
13855;SDS011;6998;53.608;9.958;2022-07-29T07:32:34;3.72;;;2.20;;
13855;SDS011;6998;53.608;9.958;2022-07-29T07:35:01;6.07;;;2.47;;
13855;SDS011;6998;53.608;9.958;2022-07-29T07:37:30;4.90;;;2.40;;
13855;SDS011;6998;53.608;9.958;2022-07-29T07:39:57;4.55;;;2.35;;
13855;SDS011;6998;53.608;9.958;2022-07-29T07:42:24;4.93;;;2.63;;
13855;SDS011;6998;53.608;9.958;2022-07-29T07:44:50;4.07;;;2.40;;
13855;SDS011;6998;53.608;9.958;2022-07-29T07:47:17;4.70;;;2.50;;
13855;SDS011;6998;53.608;9.958;2022-07-29T07:49:45;4.90;;;2.47;;
13855;SDS011;6998;53.608;9.958;2022-07-29T07:52:13;5.95;;;2.58;;
13855;SDS011;6998;53.608;9.958;2022-07-29T07:54:41;5.18;;;2.53;;
13855;SDS011;6998;53.608;9.958;2022-07-29T07:57:08;4.22;;;2.65;;
13855;SDS011;6998;53.608;9.958;2022-07-29T07:59:35;2.85;;;2.20;;
13855;SDS011;6998;53.608;9.958;2022-07-29T08:02:02;6.15;;;2.38;;
13855;SDS011;6998;53.608;9.958;2022-07-29T08:04:29;2.92;;;2.17;;
13855;SDS011;6998;53.608;9.958;2022-07-29T08:06:56;4.45;;;2.50;;
13855;SDS011;6998;53.608;9.958;2022-07-29T08:09:24;5.78;;;2.72;;
13855;SDS011;6998;53.608;9.958;2022-07-29T08:11:53;3.83;;;2.22;;
13855;SDS011;6998;53.608;9.958;2022-07-29T08:14:20;3.60;;;2.35;;
13855;SDS011;6998;53.608;9.958;2022-07-29T08:16:47;4.35;;;2.20;;
13855;SDS011;6998;53.608;9.958;2022-07-29T08:19:14;6.53;;;2.50;;
13855;SDS011;6998;53.608;9.958;2022-07-29T08:21:41;5.20;;;2.63;;
13855;SDS011;6998;53.608;9.958;2022-07-29T08:24:07;4.05;;;2.28;;
13855;SDS011;6998;53.608;9.958;2022-07-29T08:26:53;6.78;;;2.67;;
13855;SDS011;6998;53.608;9.958;2022-07-29T08:29:20;6.28;;;2.35;;
13855;SDS011;6998;53.608;9.958;2022-07-29T08:31:47;3.97;;;2.30;;
13855;SDS011;6998;53.608;9.958;2022-07-29T08:34:14;4.15;;;2.10;;
13855;SDS011;6998;53.608;9.958;2022-07-29T08:36:41;5.85;;;2.25;;
13855;SDS011;6998;53.608;9.958;2022-07-29T08:39:07;5.00;;;2.55;;
13855;SDS011;6998;53.608;9.958;2022-07-29T08:41:34;5.10;;;2.50;;
13855;SDS011;6998;53.608;9.958;2022-07-29T08:44:03;4.88;;;2.20;;
13855;SDS011;6998;53.608;9.958;2022-07-29T08:46:29;4.75;;;2.40;;
13855;SDS011;6998;53.608;9.958;2022-07-29T08:48:56;4.97;;;2.20;;
13855;SDS011;6998;53.608;9.958;2022-07-29T08:51:23;3.33;;;2.28;;
13855;SDS011;6998;53.608;9.958;2022-07-29T08:53:52;4.22;;;2.30;;
13855;SDS011;6998;53.608;9.958;2022-07-29T08:56:20;2.40;;;2.20;;
13855;SDS011;6998;53.608;9.958;2022-07-29T08:58:48;4.45;;;2.13;;
13855;SDS011;6998;53.608;9.958;2022-07-29T09:01:17;4.15;;;2.40;;
13855;SDS011;6998;53.608;9.958;2022-07-29T09:03:49;3.30;;;2.20;;
13855;SDS011;6998;53.608;9.958;2022-07-29T09:06:17;5.50;;;2.00;;
13855;SDS011;6998;53.608;9.958;2022-07-29T09:08:47;4.47;;;1.98;;
13855;SDS011;6998;53.608;9.958;2022-07-29T09:11:14;4.35;;;1.92;;
13855;SDS011;6998;53.608;9.958;2022-07-29T09:13:41;2.80;;;2.08;;
13855;SDS011;6998;53.608;9.958;2022-07-29T09:16:08;2.90;;;2.20;;
13855;SDS011;6998;53.608;9.958;2022-07-29T09:18:36;3.72;;;2.03;;
13855;SDS011;6998;53.608;9.958;2022-07-29T09:21:05;5.68;;;2.28;;
13855;SDS011;6998;53.608;9.958;2022-07-29T09:24:03;4.55;;;2.00;;
13855;SDS011;6998;53.608;9.958;2022-07-29T09:26:33;8.95;;;2.30;;
13855;SDS011;6998;53.608;9.958;2022-07-29T09:29:08;3.92;;;2.00;;
13855;SDS011;6998;53.608;9.958;2022-07-29T09:31:36;5.15;;;2.05;;
13855;SDS011;6998;53.608;9.958;2022-07-29T09:34:06;3.88;;;1.98;;
13855;SDS011;6998;53.608;9.958;2022-07-29T09:36:38;4.13;;;1.88;;
13855;SDS011;6998;53.608;9.958;2022-07-29T09:39:06;3.40;;;2.13;;
13855;SDS011;6998;53.608;9.958;2022-07-29T09:41:43;2.40;;;1.88;;
13855;SDS011;6998;53.608;9.958;2022-07-29T09:44:11;2.92;;;1.73;;
13855;SDS011;6998;53.608;9.958;2022-07-29T09:46:39;3.58;;;1.95;;
13855;SDS011;6998;53.608;9.958;2022-07-29T09:49:09;3.47;;;1.80;;
13855;SDS011;6998;53.608;9.958;2022-07-29T09:51:37;4.28;;;2.15;;
13855;SDS011;6998;53.608;9.958;2022-07-29T09:56:47;4.53;;;1.83;;
13855;SDS011;6998;53.608;9.958;2022-07-29T09:59:14;2.40;;;1.70;;
13855;SDS011;6998;53.608;9.958;2022-07-29T10:01:41;3.28;;;1.60;;
13855;SDS011;6998;53.608;9.958;2022-07-29T10:04:09;3.58;;;1.80;;
13855;SDS011;6998;53.608;9.958;2022-07-29T10:06:40;6.03;;;2.10;;
13855;SDS011;6998;53.608;9.958;2022-07-29T10:09:22;2.67;;;1.70;;
13855;SDS011;6998;53.608;9.958;2022-07-29T10:12:02;3.70;;;1.83;;
13855;SDS011;6998;53.608;9.958;2022-07-29T10:14:33;3.92;;;1.75;;
13855;SDS011;6998;53.608;9.958;2022-07-29T10:17:02;3.42;;;2.00;;
13855;SDS011;6998;53.608;9.958;2022-07-29T10:19:32;3.85;;;2.00;;
13855;SDS011;6998;53.608;9.958;2022-07-29T10:22:01;3.53;;;1.63;;
13855;SDS011;6998;53.608;9.958;2022-07-29T10:24:29;3.17;;;1.60;;
13855;SDS011;6998;53.608;9.958;2022-07-29T10:26:57;5.03;;;1.95;;
13855;SDS011;6998;53.608;9.958;2022-07-29T10:29:25;4.07;;;2.03;;
13855;SDS011;6998;53.608;9.958;2022-07-29T10:31:55;2.42;;;1.75;;
13855;SDS011;6998;53.608;9.958;2022-07-29T10:34:36;3.33;;;1.75;;
13855;SDS011;6998;53.608;9.958;2022-07-29T10:37:28;1.63;;;1.40;;
13855;SDS011;6998;53.608;9.958;2022-07-29T10:40:06;3.25;;;1.50;;
13855;SDS011;6998;53.608;9.958;2022-07-29T10:42:56;2.72;;;1.73;;
13855;SDS011;6998;53.608;9.958;2022-07-29T10:45:31;3.75;;;1.70;;
13855;SDS011;6998;53.608;9.958;2022-07-29T10:48:04;3.33;;;1.60;;
13855;SDS011;6998;53.608;9.958;2022-07-29T10:53:21;2.58;;;1.70;;
13855;SDS011;6998;53.608;9.958;2022-07-29T10:55:49;4.72;;;1.80;;
13855;SDS011;6998;53.608;9.958;2022-07-29T10:58:18;4.30;;;1.83;;
13855;SDS011;6998;53.608;9.958;2022-07-29T11:00:46;2.80;;;1.65;;
13855;SDS011;6998;53.608;9.958;2022-07-29T11:06:14;2.58;;;1.60;;
13855;SDS011;6998;53.608;9.958;2022-07-29T11:08:41;3.75;;;1.77;;
13855;SDS011;6998;53.608;9.958;2022-07-29T11:14:06;4.55;;;1.77;;
13855;SDS011;6998;53.608;9.958;2022-07-29T11:19:27;4.65;;;1.73;;
13855;SDS011;6998;53.608;9.958;2022-07-29T11:21:55;5.32;;;1.85;;
13855;SDS011;6998;53.608;9.958;2022-07-29T11:24:23;3.33;;;1.67;;
13855;SDS011;6998;53.608;9.958;2022-07-29T11:27:12;3.58;;;1.80;;
13855;SDS011;6998;53.608;9.958;2022-07-29T11:29:48;3.33;;;1.65;;
13855;SDS011;6998;53.608;9.958;2022-07-29T11:32:17;3.72;;;1.45;;
13855;SDS011;6998;53.608;9.958;2022-07-29T11:34:45;4.60;;;1.60;;
13855;SDS011;6998;53.608;9.958;2022-07-29T11:37:16;2.88;;;1.80;;
13855;SDS011;6998;53.608;9.958;2022-07-29T11:39:44;3.95;;;1.27;;
13855;SDS011;6998;53.608;9.958;2022-07-29T11:42:36;2.67;;;1.50;;
13855;SDS011;6998;53.608;9.958;2022-07-29T11:45:04;2.70;;;1.30;;
13855;SDS011;6998;53.608;9.958;2022-07-29T11:47:33;4.78;;;1.40;;
13855;SDS011;6998;53.608;9.958;2022-07-29T11:50:01;4.32;;;1.52;;
13855;SDS011;6998;53.608;9.958;2022-07-29T11:52:33;4.45;;;1.40;;
13855;SDS011;6998;53.608;9.958;2022-07-29T11:55:03;3.97;;;1.42;;
13855;SDS011;6998;53.608;9.958;2022-07-29T11:57:31;2.88;;;1.65;;
13855;SDS011;6998;53.608;9.958;2022-07-29T12:00:00;2.70;;;1.45;;
13855;SDS011;6998;53.608;9.958;2022-07-29T12:02:37;3.95;;;1.60;;
13855;SDS011;6998;53.608;9.958;2022-07-29T12:05:07;4.20;;;1.40;;
13855;SDS011;6998;53.608;9.958;2022-07-29T12:07:36;5.13;;;1.40;;
13855;SDS011;6998;53.608;9.958;2022-07-29T12:10:04;2.15;;;1.40;;
13855;SDS011;6998;53.608;9.958;2022-07-29T12:12:32;3.10;;;1.50;;
13855;SDS011;6998;53.608;9.958;2022-07-29T12:15:09;3.50;;;1.50;;
13855;SDS011;6998;53.608;9.958;2022-07-29T12:17:37;4.50;;;1.40;;
13855;SDS011;6998;53.608;9.958;2022-07-29T12:20:06;3.92;;;1.38;;
13855;SDS011;6998;53.608;9.958;2022-07-29T12:22:34;3.03;;;1.70;;
13855;SDS011;6998;53.608;9.958;2022-07-29T12:25:05;2.78;;;1.50;;
13855;SDS011;6998;53.608;9.958;2022-07-29T12:27:33;3.38;;;1.52;;
13855;SDS011;6998;53.608;9.958;2022-07-29T12:30:01;5.18;;;1.50;;
13855;SDS011;6998;53.608;9.958;2022-07-29T12:32:31;5.10;;;1.23;;
13855;SDS011;6998;53.608;9.958;2022-07-29T12:34:59;4.00;;;1.70;;
13855;SDS011;6998;53.608;9.958;2022-07-29T12:37:28;1.88;;;1.48;;
13855;SDS011;6998;53.608;9.958;2022-07-29T12:39:56;2.78;;;1.48;;
13855;SDS011;6998;53.608;9.958;2022-07-29T12:42:23;4.03;;;1.60;;
13855;SDS011;6998;53.608;9.958;2022-07-29T12:44:50;4.35;;;1.40;;
13855;SDS011;6998;53.608;9.958;2022-07-29T12:47:17;2.70;;;1.40;;
13855;SDS011;6998;53.608;9.958;2022-07-29T12:49:45;2.88;;;1.50;;
13855;SDS011;6998;53.608;9.958;2022-07-29T12:52:25;5.18;;;1.55;;
13855;SDS011;6998;53.608;9.958;2022-07-29T12:54:53;5.70;;;1.77;;
13855;SDS011;6998;53.608;9.958;2022-07-29T12:57:22;4.75;;;1.88;;
13855;SDS011;6998;53.608;9.958;2022-07-29T12:59:59;4.05;;;1.52;;
13855;SDS011;6998;53.608;9.958;2022-07-29T13:02:35;2.58;;;1.70;;
13855;SDS011;6998;53.608;9.958;2022-07-29T13:05:02;1.95;;;1.40;;
13855;SDS011;6998;53.608;9.958;2022-07-29T13:07:31;4.15;;;1.50;;
13855;SDS011;6998;53.608;9.958;2022-07-29T13:10:10;2.58;;;1.33;;
13855;SDS011;6998;53.608;9.958;2022-07-29T13:12:41;4.30;;;1.60;;
13855;SDS011;6998;53.608;9.958;2022-07-29T13:15:28;2.47;;;1.35;;
13855;SDS011;6998;53.608;9.958;2022-07-29T13:17:54;5.05;;;1.67;;
13855;SDS011;6998;53.608;9.958;2022-07-29T13:20:23;3.45;;;1.60;;
13855;SDS011;6998;53.608;9.958;2022-07-29T13:22:52;4.80;;;1.60;;
13855;SDS011;6998;53.608;9.958;2022-07-29T13:25:23;2.70;;;1.65;;
13855;SDS011;6998;53.608;9.958;2022-07-29T13:27:52;4.13;;;1.80;;
13855;SDS011;6998;53.608;9.958;2022-07-29T13:30:20;5.50;;;1.95;;
13855;SDS011;6998;53.608;9.958;2022-07-29T13:32:48;4.78;;;1.80;;
13855;SDS011;6998;53.608;9.958;2022-07-29T13:35:16;3.85;;;1.90;;
13855;SDS011;6998;53.608;9.958;2022-07-29T13:37:43;6.60;;;1.85;;
13855;SDS011;6998;53.608;9.958;2022-07-29T13:40:10;3.75;;;1.83;;
13855;SDS011;6998;53.608;9.958;2022-07-29T13:42:38;6.90;;;2.28;;
13855;SDS011;6998;53.608;9.958;2022-07-29T13:45:07;5.82;;;2.22;;
13855;SDS011;6998;53.608;9.958;2022-07-29T13:47:35;9.35;;;2.50;;
13855;SDS011;6998;53.608;9.958;2022-07-29T13:50:03;6.70;;;2.30;;
13855;SDS011;6998;53.608;9.958;2022-07-29T13:52:31;2.83;;;1.80;;
13855;SDS011;6998;53.608;9.958;2022-07-29T13:54:58;5.93;;;2.03;;
13855;SDS011;6998;53.608;9.958;2022-07-29T13:57:25;3.75;;;1.88;;
13855;SDS011;6998;53.608;9.958;2022-07-29T13:59:51;3.15;;;1.90;;
13855;SDS011;6998;53.608;9.958;2022-07-29T14:02:20;7.18;;;2.20;;
13855;SDS011;6998;53.608;9.958;2022-07-29T14:04:47;5.00;;;1.80;;
13855;SDS011;6998;53.608;9.958;2022-07-29T14:07:13;3.30;;;1.90;;
13855;SDS011;6998;53.608;9.958;2022-07-29T14:09:40;4.72;;;1.80;;
13855;SDS011;6998;53.608;9.958;2022-07-29T14:12:07;6.80;;;2.10;;
13855;SDS011;6998;53.608;9.958;2022-07-29T14:14:34;3.05;;;2.08;;
13855;SDS011;6998;53.608;9.958;2022-07-29T14:17:01;5.25;;;1.98;;
13855;SDS011;6998;53.608;9.958;2022-07-29T14:19:32;2.67;;;2.03;;
13855;SDS011;6998;53.608;9.958;2022-07-29T14:22:02;7.15;;;2.20;;
13855;SDS011;6998;53.608;9.958;2022-07-29T14:24:29;5.60;;;1.92;;
13855;SDS011;6998;53.608;9.958;2022-07-29T14:26:56;4.28;;;1.90;;
13855;SDS011;6998;53.608;9.958;2022-07-29T14:29:23;6.28;;;2.50;;
13855;SDS011;6998;53.608;9.958;2022-07-29T14:31:50;5.35;;;1.85;;
13855;SDS011;6998;53.608;9.958;2022-07-29T14:34:17;3.53;;;2.05;;
13855;SDS011;6998;53.608;9.958;2022-07-29T14:36:45;18.90;;;3.92;;
13855;SDS011;6998;53.608;9.958;2022-07-29T14:39:11;12.45;;;3.30;;
13855;SDS011;6998;53.608;9.958;2022-07-29T14:41:39;17.40;;;4.10;;
13855;SDS011;6998;53.608;9.958;2022-07-29T14:44:06;4.75;;;2.22;;
13855;SDS011;6998;53.608;9.958;2022-07-29T14:46:32;3.63;;;1.70;;
13855;SDS011;6998;53.608;9.958;2022-07-29T14:48:59;5.18;;;2.00;;
13855;SDS011;6998;53.608;9.958;2022-07-29T14:51:26;3.65;;;2.17;;
13855;SDS011;6998;53.608;9.958;2022-07-29T14:53:54;4.65;;;2.00;;
13855;SDS011;6998;53.608;9.958;2022-07-29T14:56:22;3.67;;;1.52;;
13855;SDS011;6998;53.608;9.958;2022-07-29T14:58:48;3.95;;;2.00;;
13855;SDS011;6998;53.608;9.958;2022-07-29T15:01:15;4.05;;;1.73;;
13855;SDS011;6998;53.608;9.958;2022-07-29T15:03:42;5.05;;;2.15;;
13855;SDS011;6998;53.608;9.958;2022-07-29T15:06:09;3.03;;;1.70;;
13855;SDS011;6998;53.608;9.958;2022-07-29T15:08:35;7.57;;;1.90;;
13855;SDS011;6998;53.608;9.958;2022-07-29T15:11:03;2.70;;;1.50;;
13855;SDS011;6998;53.608;9.958;2022-07-29T15:13:30;5.03;;;2.10;;
13855;SDS011;6998;53.608;9.958;2022-07-29T15:15:57;5.47;;;2.00;;
13855;SDS011;6998;53.608;9.958;2022-07-29T15:18:23;5.00;;;1.90;;
13855;SDS011;6998;53.608;9.958;2022-07-29T15:20:50;4.40;;;1.60;;
13855;SDS011;6998;53.608;9.958;2022-07-29T15:23:17;4.30;;;2.03;;
13855;SDS011;6998;53.608;9.958;2022-07-29T15:25:43;5.13;;;2.13;;
13855;SDS011;6998;53.608;9.958;2022-07-29T15:28:11;4.75;;;1.80;;
13855;SDS011;6998;53.608;9.958;2022-07-29T15:30:38;4.50;;;1.92;;